KTIX/TIX METAR and TAF weather

Enter ICAO airport designator
Station Type Date Time Source
KTIX METAR 2022/01/27 23:47 UTC NOAA

KTIX 272347Z 36012G19KT 4SM -RA OVC005 19/18 A3008


Station Type Date Time Source
KTIX Decoded METAR 2022/01/27 23:47 UTC NOAA

Titusville, FL, United States (KTIX) 28-31N 080-48W
Jan 27, 2022 - 06:47 PM EST / 2022.01.27 2347 UTC
Wind: from the N (360 degrees) at 14 MPH (12 KT) gusting to 22 MPH (19 KT):0
Visibility: 4 mile(s):0
Sky conditions: overcast
Weather: light rain
Temperature: 66 F (19 C)
Dew Point: 64 F (18 C)
Relative Humidity: 93%
Pressure (altimeter): 30.08 in. Hg (1018 hPa)
ob: KTIX 272347Z 36012G19KT 4SM -RA OVC005 19/18 A3008
cycle: 0

Station Type Date Time Source
KTIX TAF 2022/01/27 23:06 UTC NOAA

TAF
AMD KTIX 272304Z 2723/2818 01014G23KT 5SM BR VCSH SCT005 BKN035
TEMPO 2723/2724 3SM -RA BR OVC005
FM280300 01010KT P6SM VCSH SCT025 BKN035
FM281500 34008KT P6SM SCT020 BKN030

Example: see airport list